Decoded Metar for KRIC (RICHMOND in VA, USA) (IATA:RIC) | Meteo·Mobile Aviation Weather
aviador You're here:

KRIC Decoded Metar

RICHMOND in VA, USA
Report Time2018-11-18 23:54:00
UTC Time2018-11-19 00:31:20
Flight Rules vfr VFR
WindCalm
Visibility9999 m
Phenomena:N/A
Clouds:Broken 200 Hf
Overcast 300 Hf
Expected CloudBase > 1,200 ft AGL from Temp-Dew spread
Ceiling20,000 ft
Temp07°C (ISA -8)
Dew Point04°C (81% RH)
AAT5.7°C
QNH1024 hPa
Density Alt-1,020 ft
Elevation164 ft
Report Wrong Elevation
Raw Report
KRIC 182354Z 00000KT 10SM BKN200 OVC300 07/04 A3024 RMK AO2 SLP245
T00670039 10128 20067 56005=

Extra information for KRIC:More info

Metar Taf Metar & Taf Last 4 Metars F.Rules Stats Wind Profile Meteogram Temp Stats Airport Information Weather charts Add Link Nearby VenuesMetar ALERT Operation Metar Decoded Social comments

AIRNAV info for KRIC